Time,TemperatureF,DewpointF,PressureIn,WindDirection,WindDirectionDegrees,WindSpeedMPH,WindSpeedGustMPH,Humidity,HourlyPrecipIn,Conditions,Clouds,dailyrainin,SoftwareType,DateUTC
2013-06-16 00:02:00,59.4,45.5,29.99,West,270,2.0,2.0,60,0.00,,,0.00,meteohub,2013-06-16 07:02:00,
2013-06-16 00:07:00,59.4,45.5,29.99,NW,315,2.0,2.0,60,0.00,,,0.00,meteohub,2013-06-16 07:07:00,
2013-06-16 00:12:00,59.4,45.5,29.99,SW,225,2.0,2.0,60,0.00,,,0.00,meteohub,2013-06-16 07:12:00,
2013-06-16 00:17:00,59.4,45.9,29.99,SW,225,2.0,2.0,61,0.00,,,0.00,meteohub,2013-06-16 07:17:00,
2013-06-16 00:22:00,59.4,45.9,29.99,West,270,1.0,2.0,61,0.00,,,0.00,meteohub,2013-06-16 07:22:00,
2013-06-16 00:27:00,59.2,45.7,29.99,SSW,203,1.0,2.0,61,0.00,,,0.00,meteohub,2013-06-16 07:27:00,
2013-06-16 00:32:00,59.0,45.5,29.98,South,180,2.0,2.0,61,0.00,,,0.00,meteohub,2013-06-16 07:32:00,
2013-06-16 00:37:00,59.0,45.5,29.99,SW,225,1.0,2.0,61,0.00,,,0.00,meteohub,2013-06-16 07:37:00,
2013-06-16 00:42:00,58.8,45.9,29.99,NW,315,0.0,2.0,62,0.00,,,0.00,meteohub,2013-06-16 07:42:00,
2013-06-16 00:47:00,58.6,45.7,29.98,NW,315,0.0,2.0,62,0.00,,,0.00,meteohub,2013-06-16 07:47:00,
2013-06-16 00:52:00,58.6,45.7,29.99,NW,315,0.0,1.0,62,0.00,,,0.00,meteohub,2013-06-16 07:52:00,
2013-06-16 00:57:00,58.1,45.1,29.98,NW,315,0.0,1.0,62,0.00,,,0.00,meteohub,2013-06-16 07:57:00,
2013-06-16 01:02:00,57.9,45.3,29.98,NW,315,0.0,1.0,63,0.00,,,0.00,meteohub,2013-06-16 08:02:00,
2013-06-16 01:07:00,57.7,45.3,29.98,NW,315,0.0,1.0,63,0.00,,,0.00,meteohub,2013-06-16 08:07:00,
2013-06-16 01:12:00,57.4,45.0,29.99,NW,315,0.0,1.0,63,0.00,,,0.00,meteohub,2013-06-16 08:12:00,
2013-06-16 01:17:00,57.0,45.0,29.98,SW,225,2.0,0.0,64,0.00,,,0.00,meteohub,2013-06-16 08:17:00,
2013-06-16 01:22:00,57.0,45.3,29.99,SW,225,2.0,2.0,65,0.00,,,0.00,meteohub,2013-06-16 08:22:00,
2013-06-16 01:27:00,56.8,45.1,29.99,SW,225,1.0,2.0,65,0.00,,,0.00,meteohub,2013-06-16 08:27:00,
2013-06-16 01:32:00,56.5,45.3,29.99,SW,225,0.0,2.0,66,0.00,,,0.00,meteohub,2013-06-16 08:32:00,
2013-06-16 01:37:00,56.1,45.0,29.99,SW,225,0.0,2.0,66,0.00,,,0.00,meteohub,2013-06-16 08:37:00,
2013-06-16 01:42:00,55.9,44.8,29.99,SE,135,1.0,2.0,66,0.00,,,0.00,meteohub,2013-06-16 08:42:00,
2013-06-16 01:47:00,55.6,44.8,29.99,SE,135,0.0,1.0,67,0.00,,,0.00,meteohub,2013-06-16 08:47:00,
2013-06-16 01:52:00,55.4,45.0,29.99,SW,225,2.0,2.0,68,0.00,,,0.00,meteohub,2013-06-16 08:52:00,
2013-06-16 01:57:00,55.4,45.0,29.99,SW,225,1.0,2.0,68,0.00,,,0.00,meteohub,2013-06-16 08:57:00,
2013-06-16 02:02:00,55.0,45.1,29.99,SW,225,0.0,2.0,69,0.00,,,0.00,meteohub,2013-06-16 09:02:00,
2013-06-16 02:07:00,55.0,45.5,29.99,SW,225,2.0,2.0,70,0.00,,,0.00,meteohub,2013-06-16 09:07:00,
2013-06-16 02:12:00,55.0,45.5,29.99,West,270,1.0,2.0,70,0.00,,,0.00,meteohub,2013-06-16 09:12:00,
2013-06-16 02:17:00,54.9,45.3,29.99,West,270,0.0,2.0,70,0.00,,,0.00,meteohub,2013-06-16 09:17:00,
2013-06-16 02:22:00,54.9,45.7,29.99,East,90,0.0,2.0,71,0.00,,,0.00,meteohub,2013-06-16 09:22:00,
2013-06-16 02:27:00,54.7,45.5,29.99,South,180,1.0,2.0,71,0.00,,,0.00,meteohub,2013-06-16 09:27:00,
2013-06-16 02:32:00,54.5,45.3,29.99,SW,225,1.0,1.0,71,0.00,,,0.00,meteohub,2013-06-16 09:32:00,
2013-06-16 02:37:00,54.5,45.7,29.99,SW,225,2.0,2.0,72,0.00,,,0.00,meteohub,2013-06-16 09:37:00,
2013-06-16 02:42:00,54.3,45.5,29.99,SW,225,1.0,2.0,72,0.00,,,0.00,meteohub,2013-06-16 09:42:00,
2013-06-16 02:47:00,54.5,45.7,29.99,SW,225,0.0,2.0,72,0.00,,,0.00,meteohub,2013-06-16 09:47:00,
2013-06-16 02:52:00,54.3,45.5,29.99,SW,225,0.0,2.0,72,0.00,,,0.00,meteohub,2013-06-16 09:52:00,
2013-06-16 02:57:00,54.3,45.5,29.99,SW,225,0.0,1.0,72,0.00,,,0.00,meteohub,2013-06-16 09:57:00,
2013-06-16 03:02:00,54.1,45.3,29.99,SW,225,0.0,0.0,72,0.00,,,0.00,meteohub,2013-06-16 10:02:00,
2013-06-16 03:07:00,54.1,45.3,29.99,SW,225,0.0,0.0,72,0.00,,,0.00,meteohub,2013-06-16 10:07:00,
2013-06-16 03:12:00,54.1,45.3,29.99,SW,225,0.0,0.0,72,0.00,,,0.00,meteohub,2013-06-16 10:12:00,
2013-06-16 03:17:00,54.0,45.1,29.99,SW,225,0.0,1.0,72,0.00,,,0.00,meteohub,2013-06-16 10:17:00,
2013-06-16 03:22:00,54.0,45.5,29.99,SW,225,0.0,1.0,73,0.00,,,0.00,meteohub,2013-06-16 10:22:00,
2013-06-16 03:27:00,54.0,45.5,29.99,SW,225,1.0,1.0,73,0.00,,,0.00,meteohub,2013-06-16 10:27:00,
2013-06-16 03:32:00,54.0,45.5,29.99,SW,225,1.0,1.0,73,0.00,,,0.00,meteohub,2013-06-16 10:32:00,
2013-06-16 03:37:00,53.8,45.3,29.99,SW,225,0.0,1.0,73,0.00,,,0.00,meteohub,2013-06-16 10:37:00,
2013-06-16 03:42:00,53.8,45.3,29.99,SW,225,0.0,1.0,73,0.00,,,0.00,meteohub,2013-06-16 10:42:00,
2013-06-16 03:47:00,53.8,45.3,29.99,East,90,0.0,1.0,73,0.00,,,0.00,meteohub,2013-06-16 10:47:00,
2013-06-16 03:52:00,53.8,45.3,29.99,East,90,1.0,1.0,73,0.00,,,0.00,meteohub,2013-06-16 10:52:00,
2013-06-16 03:57:00,53.8,45.3,29.99,SE,135,0.0,1.0,73,0.00,,,0.00,meteohub,2013-06-16 10:57:00,
2013-06-16 04:02:00,53.8,45.3,29.99,SE,135,0.0,1.0,73,0.00,,,0.00,meteohub,2013-06-16 11:02:00,
2013-06-16 04:07:00,53.8,45.3,29.99,SW,225,2.0,2.0,73,0.00,,,0.00,meteohub,2013-06-16 11:07:00,
2013-06-16 04:12:00,54.0,45.5,29.99,North,0,0.0,2.0,73,0.00,,,0.00,meteohub,2013-06-16 11:12:00,
2013-06-16 04:17:00,54.0,45.5,29.99,East,90,0.0,2.0,73,0.00,,,0.00,meteohub,2013-06-16 11:17:00,
2013-06-16 04:22:00,54.0,45.5,29.99,East,90,0.0,2.0,73,0.00,,,0.00,meteohub,2013-06-16 11:22:00,
2013-06-16 04:27:00,53.8,45.3,29.99,East,90,0.0,1.0,73,0.00,,,0.00,meteohub,2013-06-16 11:27:00,
2013-06-16 04:32:00,53.8,45.3,29.99,SW,225,1.0,1.0,73,0.00,,,0.00,meteohub,2013-06-16 11:32:00,
2013-06-16 04:37:00,53.8,45.3,29.99,SW,225,0.0,1.0,73,0.00,,,0.00,meteohub,2013-06-16 11:37:00,
2013-06-16 04:42:00,53.6,45.5,30.00,SW,225,0.0,1.0,74,0.00,,,0.00,meteohub,2013-06-16 11:42:00,
2013-06-16 04:47:00,53.6,45.5,30.00,SW,225,0.0,1.0,74,0.00,,,0.00,meteohub,2013-06-16 11:47:00,
2013-06-16 04:52:00,53.4,45.7,29.99,SW,225,0.0,1.0,75,0.00,,,0.00,meteohub,2013-06-16 11:52:00,
2013-06-16 04:57:00,53.2,45.5,29.99,SW,225,0.0,1.0,75,0.00,,,0.00,meteohub,2013-06-16 11:57:00,
2013-06-16 05:02:00,53.1,45.3,30.00,SW,225,1.0,0.0,75,0.00,,,0.00,meteohub,2013-06-16 12:02:00,
2013-06-16 05:07:00,52.9,45.1,30.00,SW,225,0.0,1.0,75,0.00,,,0.00,meteohub,2013-06-16 12:07:00,
2013-06-16 05:12:00,52.7,45.3,30.00,SW,225,0.0,1.0,76,0.00,,,0.00,meteohub,2013-06-16 12:12:00,
2013-06-16 05:17:00,52.5,45.1,30.00,SW,225,1.0,1.0,76,0.00,,,0.00,meteohub,2013-06-16 12:17:00,
2013-06-16 05:22:00,52.3,45.0,30.00,SW,225,0.0,1.0,76,0.00,,,0.00,meteohub,2013-06-16 12:22:00,
2013-06-16 05:27:00,52.3,45.0,30.00,SW,225,1.0,1.0,76,0.00,,,0.00,meteohub,2013-06-16 12:27:00,
2013-06-16 05:32:00,52.2,45.1,30.00,SW,225,0.0,1.0,77,0.00,,,0.00,meteohub,2013-06-16 12:32:00,
2013-06-16 05:37:00,52.0,45.0,30.00,SW,225,1.0,1.0,77,0.00,,,0.00,meteohub,2013-06-16 12:37:00,
2013-06-16 05:42:00,51.8,44.8,30.00,SW,225,1.0,1.0,77,0.00,,,0.00,meteohub,2013-06-16 12:42:00,
2013-06-16 05:47:00,51.8,45.1,30.00,SW,225,1.0,1.0,78,0.00,,,0.00,meteohub,2013-06-16 12:47:00,
2013-06-16 05:52:00,51.8,45.1,30.00,SW,225,0.0,1.0,78,0.00,,,0.00,meteohub,2013-06-16 12:52:00,
2013-06-16 05:57:00,52.2,45.9,30.00,SW,225,1.0,2.0,79,0.00,,,0.00,meteohub,2013-06-16 12:57:00,
2013-06-16 06:02:00,52.3,46.0,30.01,SSW,203,2.0,2.0,79,0.00,,,0.00,meteohub,2013-06-16 13:02:00,
2013-06-16 06:07:00,52.5,46.2,30.01,NE,45,0.0,2.0,79,0.00,,,0.00,meteohub,2013-06-16 13:07:00,
2013-06-16 06:12:00,52.7,46.0,30.01,NE,45,1.0,2.0,78,0.00,,,0.00,meteohub,2013-06-16 13:12:00,
2013-06-16 06:17:00,52.7,45.7,30.01,SW,225,0.0,2.0,77,0.00,,,0.00,meteohub,2013-06-16 13:17:00,
2013-06-16 06:22:00,52.5,45.5,30.01,East,90,0.0,2.0,77,0.00,,,0.00,meteohub,2013-06-16 13:22:00,
2013-06-16 06:27:00,52.9,46.2,30.01,SW,225,2.0,2.0,78,0.00,,,0.00,meteohub,2013-06-16 13:27:00,
2013-06-16 06:32:00,53.2,46.6,30.01,SW,225,1.0,2.0,78,0.00,,,0.00,meteohub,2013-06-16 13:32:00,
2013-06-16 06:37:00,53.6,46.6,30.01,SW,225,2.0,2.0,77,0.00,,,0.00,meteohub,2013-06-16 13:37:00,
2013-06-16 06:42:00,54.1,46.8,30.01,South,180,2.0,2.0,76,0.00,,,0.00,meteohub,2013-06-16 13:42:00,
2013-06-16 06:47:00,54.7,47.3,30.01,SW,225,1.0,2.0,76,0.00,,,0.00,meteohub,2013-06-16 13:47:00,
2013-06-16 06:52:00,55.0,47.3,30.01,SW,225,2.0,2.0,75,0.00,,,0.00,meteohub,2013-06-16 13:52:00,
2013-06-16 06:57:00,55.0,46.9,30.01,South,180,1.0,2.0,74,0.00,,,0.00,meteohub,2013-06-16 13:57:00,
2013-06-16 07:02:00,55.0,46.9,30.02,South,180,1.0,2.0,74,0.00,,,0.00,meteohub,2013-06-16 14:02:00,
2013-06-16 07:07:00,55.2,47.1,30.01,South,180,2.0,2.0,74,0.00,,,0.00,meteohub,2013-06-16 14:07:00,
2013-06-16 07:12:00,55.9,47.5,30.02,South,180,2.0,2.0,73,0.00,,,0.00,meteohub,2013-06-16 14:12:00,
2013-06-16 07:17:00,56.5,48.0,30.02,South,180,1.0,2.0,73,0.00,,,0.00,meteohub,2013-06-16 14:17:00,
2013-06-16 07:22:00,56.8,48.2,30.01,SE,135,2.0,2.0,73,0.00,,,0.00,meteohub,2013-06-16 14:22:00,
2013-06-16 07:27:00,57.0,48.0,30.02,South,180,2.0,2.0,72,0.00,,,0.00,meteohub,2013-06-16 14:27:00,
2013-06-16 07:32:00,57.4,47.7,30.02,South,180,2.0,2.0,70,0.00,,,0.00,meteohub,2013-06-16 14:32:00,
2013-06-16 07:37:00,57.9,48.2,30.02,SE,135,2.0,2.0,70,0.00,,,0.00,meteohub,2013-06-16 14:37:00,
2013-06-16 07:42:00,58.6,48.6,30.02,SW,225,2.0,2.0,69,0.00,,,0.00,meteohub,2013-06-16 14:42:00,
2013-06-16 07:47:00,59.5,48.6,30.02,SW,225,1.0,2.0,67,0.00,,,0.00,meteohub,2013-06-16 14:47:00,
2013-06-16 07:52:00,60.1,48.7,30.02,South,180,2.0,2.0,66,0.00,,,0.00,meteohub,2013-06-16 14:52:00,
2013-06-16 07:57:00,60.4,48.6,30.02,SW,225,2.0,4.0,65,0.00,,,0.00,meteohub,2013-06-16 14:57:00,
2013-06-16 08:02:00,61.0,47.8,30.02,South,180,2.0,4.0,62,0.00,,,0.00,meteohub,2013-06-16 15:02:00,
2013-06-16 08:07:00,61.5,48.4,30.02,SW,225,4.0,4.0,62,0.00,,,0.00,meteohub,2013-06-16 15:07:00,
2013-06-16 08:12:00,62.1,48.4,30.03,SW,225,3.0,4.0,61,0.00,,,0.00,meteohub,2013-06-16 15:12:00,
2013-06-16 08:17:00,62.4,48.4,30.02,NW,315,2.0,4.0,60,0.00,,,0.00,meteohub,2013-06-16 15:17:00,
2013-06-16 08:22:00,62.6,48.0,30.02,NW,315,4.0,4.0,59,0.00,,,0.00,meteohub,2013-06-16 15:22:00,
2013-06-16 08:27:00,63.1,48.6,30.02,NE,45,2.0,4.0,59,0.00,,,0.00,meteohub,2013-06-16 15:27:00,
2013-06-16 08:32:00,64.2,49.6,30.02,NW,315,4.0,4.0,59,0.00,,,0.00,meteohub,2013-06-16 15:32:00,
2013-06-16 08:37:00,64.6,48.6,30.02,NW,315,4.0,4.0,56,0.00,,,0.00,meteohub,2013-06-16 15:37:00,
2013-06-16 08:42:00,64.9,48.9,30.02,North,0,2.0,4.0,56,0.00,,,0.00,meteohub,2013-06-16 15:42:00,
2013-06-16 08:47:00,65.7,49.5,30.02,South,180,2.0,4.0,56,0.00,,,0.00,meteohub,2013-06-16 15:47:00,
2013-06-16 08:52:00,65.8,49.6,30.02,SW,225,2.0,4.0,56,0.00,,,0.00,meteohub,2013-06-16 15:52:00,
2013-06-16 08:57:00,66.0,49.5,30.02,SW,225,2.0,3.0,55,0.00,,,0.00,meteohub,2013-06-16 15:57:00,
2013-06-16 09:02:00,66.7,50.5,30.02,South,180,3.0,3.0,56,0.00,,,0.00,meteohub,2013-06-16 16:02:00,
2013-06-16 09:07:00,67.1,48.9,30.01,SW,225,2.0,5.0,52,0.00,,,0.00,meteohub,2013-06-16 16:07:00,
2013-06-16 09:12:00,67.3,49.1,30.01,South,180,3.0,46.0,52,0.00,,,0.00,meteohub,2013-06-16 16:12:00,
2013-06-16 09:17:00,67.6,49.5,30.02,SE,135,3.0,46.0,52,0.00,,,0.00,meteohub,2013-06-16 16:17:00,
2013-06-16 09:22:00,69.1,49.6,30.02,North,0,4.0,46.0,50,0.00,,,0.00,meteohub,2013-06-16 16:22:00,
2013-06-16 09:27:00,70.0,48.7,30.01,NE,45,5.0,6.0,47,0.00,,,0.00,meteohub,2013-06-16 16:27:00,
2013-06-16 09:32:00,70.5,48.7,30.01,NE,45,4.0,6.0,46,0.00,,,0.00,meteohub,2013-06-16 16:32:00,
2013-06-16 09:37:00,71.1,48.6,30.01,East,90,4.0,6.0,45,0.00,,,0.00,meteohub,2013-06-16 16:37:00,
2013-06-16 09:42:00,72.0,48.2,30.01,North,0,2.0,6.0,43,0.00,,,0.00,meteohub,2013-06-16 16:42:00,
2013-06-16 09:47:00,72.7,48.9,30.01,North,0,4.0,6.0,43,0.00,,,0.00,meteohub,2013-06-16 16:47:00,
2013-06-16 09:52:00,72.1,47.1,30.01,NE,45,2.0,4.0,41,0.00,,,0.00,meteohub,2013-06-16 16:52:00,
2013-06-16 09:57:00,72.5,46.2,30.01,West,270,3.0,4.0,39,0.00,,,0.00,meteohub,2013-06-16 16:57:00,
2013-06-16 10:02:00,72.1,45.9,30.01,NE,45,4.0,5.0,39,0.00,,,0.00,meteohub,2013-06-16 17:02:00,
2013-06-16 10:07:00,72.9,45.7,30.01,NE,45,4.0,5.0,38,0.00,,,0.00,meteohub,2013-06-16 17:07:00,
2013-06-16 10:12:00,73.4,46.9,30.01,NW,315,4.0,5.0,39,0.00,,,0.00,meteohub,2013-06-16 17:12:00,
2013-06-16 10:17:00,73.2,46.0,30.02,East,90,4.0,4.0,38,0.00,,,0.00,meteohub,2013-06-16 17:17:00,
2013-06-16 10:22:00,73.6,46.4,30.01,West,270,3.0,5.0,38,0.00,,,0.00,meteohub,2013-06-16 17:22:00,
2013-06-16 10:27:00,73.6,45.7,30.01,SW,225,2.0,5.0,37,0.00,,,0.00,meteohub,2013-06-16 17:27:00,
2013-06-16 10:32:00,73.6,47.1,30.01,North,0,4.0,5.0,39,0.00,,,0.00,meteohub,2013-06-16 17:32:00,
2013-06-16 10:37:00,75.0,44.8,30.01,ENE,68,7.0,7.0,34,0.00,,,0.00,meteohub,2013-06-16 17:37:00,
2013-06-16 10:42:00,74.8,45.3,30.01,NE,45,6.0,8.0,35,0.00,,,0.00,meteohub,2013-06-16 17:42:00,
2013-06-16 10:47:00,75.6,45.1,30.01,NE,45,4.0,8.0,34,0.00,,,0.00,meteohub,2013-06-16 17:47:00,
2013-06-16 10:52:00,75.6,44.4,30.01,NW,315,2.0,8.0,33,0.00,,,0.00,meteohub,2013-06-16 17:52:00,
2013-06-16 10:57:00,74.8,46.8,30.01,SW,225,4.0,6.0,37,0.00,,,0.00,meteohub,2013-06-16 17:57:00,
2013-06-16 11:02:00,74.5,45.0,30.01,NW,315,5.0,6.0,35,0.00,,,0.00,meteohub,2013-06-16 18:02:00,
2013-06-16 11:07:00,73.8,42.8,30.01,SE,135,3.0,5.0,33,0.00,,,0.00,meteohub,2013-06-16 18:07:00,
2013-06-16 11:12:00,74.7,44.4,30.01,North,0,3.0,5.0,34,0.00,,,0.00,meteohub,2013-06-16 18:12:00,
2013-06-16 11:17:00,75.4,44.2,30.01,NE,45,2.0,5.0,33,0.00,,,0.00,meteohub,2013-06-16 18:17:00,
2013-06-16 11:22:00,75.9,43.9,30.01,North,0,6.0,6.0,32,0.00,,,0.00,meteohub,2013-06-16 18:22:00,
2013-06-16 11:27:00,76.1,43.3,30.01,NE,45,4.0,8.0,31,0.00,,,0.00,meteohub,2013-06-16 18:27:00,
2013-06-16 11:32:00,76.8,43.9,30.01,SE,135,5.0,8.0,31,0.00,,,0.00,meteohub,2013-06-16 18:32:00,
2013-06-16 11:37:00,77.9,44.1,30.01,East,90,3.0,8.0,30,0.00,,,0.00,meteohub,2013-06-16 18:37:00,
2013-06-16 11:42:00,78.8,42.1,30.01,NE,45,4.0,8.0,27,0.00,,,0.00,meteohub,2013-06-16 18:42:00,
2013-06-16 11:47:00,79.3,42.4,30.01,North,0,4.0,8.0,27,0.00,,,0.00,meteohub,2013-06-16 18:47:00,
2013-06-16 11:52:00,79.3,43.3,30.01,NNE,23,5.0,8.0,28,0.00,,,0.00,meteohub,2013-06-16 18:52:00,
2013-06-16 11:57:00,78.8,43.9,30.00,West,270,3.0,8.0,29,0.00,,,0.00,meteohub,2013-06-16 18:57:00,
2013-06-16 12:02:00,78.6,45.5,30.00,NW,315,8.0,8.0,31,0.00,,,0.00,meteohub,2013-06-16 19:02:00,
2013-06-16 12:07:00,79.0,45.0,30.00,North,0,4.0,8.0,30,0.00,,,0.00,meteohub,2013-06-16 19:07:00,
2013-06-16 12:12:00,79.9,44.8,29.99,NW,315,7.0,8.0,29,0.00,,,0.00,meteohub,2013-06-16 19:12:00,
2013-06-16 12:17:00,79.9,44.8,30.00,North,0,6.0,8.0,29,0.00,,,0.00,meteohub,2013-06-16 19:17:00,
2013-06-16 12:22:00,80.2,45.1,30.00,North,0,4.0,8.0,29,0.00,,,0.00,meteohub,2013-06-16 19:22:00,
2013-06-16 12:27:00,80.8,44.6,30.00,North,0,8.0,10.0,28,0.00,,,0.00,meteohub,2013-06-16 19:27:00,
2013-06-16 12:32:00,80.4,44.2,30.00,NE,45,2.0,10.0,28,0.00,,,0.00,meteohub,2013-06-16 19:32:00,
2013-06-16 12:37:00,80.2,44.2,29.99,East,90,3.0,10.0,28,0.00,,,0.00,meteohub,2013-06-16 19:37:00,
2013-06-16 12:42:00,80.4,42.4,29.99,NE,45,8.0,9.0,26,0.00,,,0.00,meteohub,2013-06-16 19:42:00,
2013-06-16 12:47:00,81.3,43.2,29.99,NW,315,3.0,8.0,26,0.00,,,0.00,meteohub,2013-06-16 19:47:00,
2013-06-16 12:52:00,81.7,39.2,29.99,NW,315,5.0,8.0,22,0.00,,,0.00,meteohub,2013-06-16 19:52:00,
2013-06-16 12:57:00,81.7,39.2,29.99,South,180,4.0,8.0,22,0.00,,,0.00,meteohub,2013-06-16 19:57:00,
2013-06-16 13:02:00,81.3,39.9,29.99,SW,225,4.0,7.0,23,0.00,,,0.00,meteohub,2013-06-16 20:02:00,
2013-06-16 13:07:00,81.0,38.5,29.99,NW,315,5.0,11.0,22,0.00,,,0.00,meteohub,2013-06-16 20:07:00,
2013-06-16 13:12:00,80.6,37.0,29.98,NW,315,8.0,11.0,21,0.00,,,0.00,meteohub,2013-06-16 20:12:00,
2013-06-16 13:17:00,80.6,35.8,29.98,NW,315,4.0,11.0,20,0.00,,,0.00,meteohub,2013-06-16 20:17:00,
2013-06-16 13:22:00,81.3,38.8,29.98,NW,315,4.0,8.0,22,0.00,,,0.00,meteohub,2013-06-16 20:22:00,
2013-06-16 13:27:00,81.7,36.7,29.98,East,90,5.0,8.0,20,0.00,,,0.00,meteohub,2013-06-16 20:27:00,
2013-06-16 13:32:00,81.7,35.4,29.98,SW,225,2.0,8.0,19,0.00,,,0.00,meteohub,2013-06-16 20:32:00,
2013-06-16 13:37:00,82.0,35.8,29.97,East,90,6.0,8.0,19,0.00,,,0.00,meteohub,2013-06-16 20:37:00,
2013-06-16 13:42:00,82.6,41.0,29.97,NW,315,6.0,8.0,23,0.00,,,0.00,meteohub,2013-06-16 20:42:00,
2013-06-16 13:47:00,83.3,40.5,29.96,NE,45,6.0,8.0,22,0.00,,,0.00,meteohub,2013-06-16 20:47:00,
2013-06-16 13:52:00,84.0,42.3,29.96,North,0,6.0,8.0,23,0.00,,,0.00,meteohub,2013-06-16 20:52:00,
2013-06-16 13:57:00,85.1,40.8,29.96,North,0,4.0,8.0,21,0.00,,,0.00,meteohub,2013-06-16 20:57:00,
2013-06-16 14:02:00,85.5,41.0,29.96,SW,225,3.0,8.0,21,0.00,,,0.00,meteohub,2013-06-16 21:02:00,
2013-06-16 14:07:00,85.1,40.8,29.96,NE,45,4.0,8.0,21,0.00,,,0.00,meteohub,2013-06-16 21:07:00,
2013-06-16 14:12:00,84.9,40.6,29.96,South,180,8.0,8.0,21,0.00,,,0.00,meteohub,2013-06-16 21:12:00,
2013-06-16 14:17:00,84.4,40.1,29.95,East,90,3.0,11.0,21,0.00,,,0.00,meteohub,2013-06-16 21:17:00,
2013-06-16 14:22:00,84.2,42.4,29.95,WNW,293,5.0,11.0,23,0.00,,,0.00,meteohub,2013-06-16 21:22:00,
2013-06-16 14:27:00,83.7,40.8,29.96,WNW,293,4.0,11.0,22,0.00,,,0.00,meteohub,2013-06-16 21:27:00,
2013-06-16 14:32:00,83.3,41.7,29.96,SW,225,6.0,8.0,23,0.00,,,0.00,meteohub,2013-06-16 21:32:00,
2013-06-16 14:37:00,82.6,39.9,29.95,NE,45,3.0,8.0,22,0.00,,,0.00,meteohub,2013-06-16 21:37:00,
2013-06-16 14:42:00,81.9,36.9,29.96,NE,45,8.0,8.0,20,0.00,,,0.00,meteohub,2013-06-16 21:42:00,
2013-06-16 14:47:00,81.3,38.8,29.96,NW,315,11.0,11.0,22,0.00,,,0.00,meteohub,2013-06-16 21:47:00,
2013-06-16 14:52:00,80.8,39.6,29.96,West,270,7.0,11.0,23,0.00,,,0.00,meteohub,2013-06-16 21:52:00,
2013-06-16 14:57:00,81.0,38.5,29.96,NW,315,11.0,11.0,22,0.00,,,0.00,meteohub,2013-06-16 21:57:00,
2013-06-16 15:02:00,81.0,37.4,29.96,NW,315,10.0,11.0,21,0.00,,,0.00,meteohub,2013-06-16 22:02:00,
2013-06-16 15:07:00,81.3,37.6,29.96,North,0,7.0,13.0,21,0.00,,,0.00,meteohub,2013-06-16 22:07:00,
2013-06-16 15:12:00,82.8,42.3,29.96,NW,315,9.0,13.0,24,0.00,,,0.00,meteohub,2013-06-16 22:12:00,
2013-06-16 15:17:00,83.7,43.0,29.96,NW,315,5.0,13.0,24,0.00,,,0.00,meteohub,2013-06-16 22:17:00,
2013-06-16 15:22:00,83.8,42.1,29.96,NW,315,8.0,11.0,23,0.00,,,0.00,meteohub,2013-06-16 22:22:00,
2013-06-16 15:27:00,82.8,41.2,29.96,NW,315,8.0,10.0,23,0.00,,,0.00,meteohub,2013-06-16 22:27:00,
2013-06-16 15:32:00,82.4,44.1,29.96,NW,315,8.0,9.0,26,0.00,,,0.00,meteohub,2013-06-16 22:32:00,
2013-06-16 15:37:00,82.9,43.5,29.96,North,0,9.0,9.0,25,0.00,,,0.00,meteohub,2013-06-16 22:37:00,
2013-06-16 15:42:00,81.5,43.3,29.96,NE,45,11.0,11.0,26,0.00,,,0.00,meteohub,2013-06-16 22:42:00,
2013-06-16 15:47:00,80.6,41.5,29.96,East,90,6.0,12.0,25,0.00,,,0.00,meteohub,2013-06-16 22:47:00,
2013-06-16 15:52:00,80.4,42.4,29.96,North,0,8.0,17.0,26,0.00,,,0.00,meteohub,2013-06-16 22:52:00,
2013-06-16 15:57:00,79.9,43.0,29.96,NW,315,13.0,17.0,27,0.00,,,0.00,meteohub,2013-06-16 22:57:00,
2013-06-16 16:02:00,78.8,43.9,29.97,NW,315,8.0,17.0,29,0.00,,,0.00,meteohub,2013-06-16 23:02:00,
2013-06-16 16:07:00,78.3,46.0,29.97,North,0,10.0,15.0,32,0.00,,,0.00,meteohub,2013-06-16 23:07:00,
2013-06-16 16:12:00,77.4,46.0,29.97,NE,45,5.0,15.0,33,0.00,,,0.00,meteohub,2013-06-16 23:12:00,
2013-06-16 16:17:00,76.6,47.7,29.97,North,0,7.0,15.0,36,0.00,,,0.00,meteohub,2013-06-16 23:17:00,
2013-06-16 16:22:00,76.3,48.7,29.97,NW,315,11.0,15.0,38,0.00,,,0.00,meteohub,2013-06-16 23:22:00,
2013-06-16 16:27:00,76.6,50.5,29.97,NW,315,11.0,15.0,40,0.00,,,0.00,meteohub,2013-06-16 23:27:00,
2013-06-16 16:32:00,77.2,51.1,29.97,NE,45,8.0,15.0,40,0.00,,,0.00,meteohub,2013-06-16 23:32:00,
2013-06-16 16:37:00,77.7,50.7,29.97,NW,315,11.0,15.0,39,0.00,,,0.00,meteohub,2013-06-16 23:37:00,
2013-06-16 16:42:00,77.7,50.0,29.97,South,180,11.0,15.0,38,0.00,,,0.00,meteohub,2013-06-16 23:42:00,
2013-06-16 16:47:00,78.1,50.4,29.96,South,180,16.0,16.0,38,0.00,,,0.00,meteohub,2013-06-16 23:47:00,
2013-06-16 16:52:00,78.4,50.0,29.98,North,0,11.0,16.0,37,0.00,,,0.00,meteohub,2013-06-16 23:52:00,
2013-06-16 16:57:00,78.1,49.6,29.97,NW,315,13.0,16.0,37,0.00,,,0.00,meteohub,2013-06-16 23:57:00,
2013-06-16 17:02:00,77.5,50.0,29.98,NW,315,11.0,16.0,38,0.00,,,0.00,meteohub,2013-06-17 00:02:00,
2013-06-16 17:07:00,77.7,48.6,29.97,NW,315,10.0,15.0,36,0.00,,,0.00,meteohub,2013-06-17 00:07:00,
2013-06-16 17:12:00,76.3,48.7,29.97,SW,225,8.0,15.0,38,0.00,,,0.00,meteohub,2013-06-17 00:12:00,
2013-06-16 17:17:00,76.1,49.3,29.98,East,90,14.0,14.0,39,0.00,,,0.00,meteohub,2013-06-17 00:17:00,
2013-06-16 17:22:00,75.6,49.5,29.98,NW,315,9.0,14.0,40,0.00,,,0.00,meteohub,2013-06-17 00:22:00,
2013-06-16 17:27:00,75.0,50.4,29.98,West,270,5.0,14.0,42,0.00,,,0.00,meteohub,2013-06-17 00:27:00,
2013-06-16 17:32:00,74.7,50.0,29.99,WSW,248,7.0,14.0,42,0.00,,,0.00,meteohub,2013-06-17 00:32:00,
2013-06-16 17:37:00,74.1,50.2,29.98,West,270,5.0,13.0,43,0.00,,,0.00,meteohub,2013-06-17 00:37:00,
2013-06-16 17:42:00,73.2,50.0,29.99,North,0,6.0,14.0,44,0.00,,,0.00,meteohub,2013-06-17 00:42:00,
2013-06-16 17:47:00,72.7,50.2,29.99,South,180,11.0,14.0,45,0.00,,,0.00,meteohub,2013-06-17 00:47:00,
2013-06-16 17:52:00,72.1,49.6,29.99,North,0,5.0,14.0,45,0.00,,,0.00,meteohub,2013-06-17 00:52:00,
2013-06-16 17:58:00,71.8,49.3,29.99,WSW,248,5.0,14.0,45,0.00,,,0.00,meteohub,2013-06-17 00:58:00,
2013-06-16 18:04:00,71.1,50.9,30.00,West,270,4.0,14.0,49,0.00,,,0.00,meteohub,2013-06-17 01:04:00,
2013-06-16 18:10:00,71.2,51.1,30.00,SE,135,8.0,14.0,49,0.00,,,0.00,meteohub,2013-06-17 01:10:00,
2013-06-16 18:16:00,71.6,50.9,30.00,NW,315,10.0,11.0,48,0.00,,,0.00,meteohub,2013-06-17 01:16:00,
2013-06-16 18:22:00,71.6,50.4,30.01,West,270,8.0,12.0,47,0.00,,,0.00,meteohub,2013-06-17 01:22:00,
2013-06-16 18:27:00,72.0,50.7,30.01,North,0,13.0,13.0,47,0.00,,,0.00,meteohub,2013-06-17 01:27:00,
2013-06-16 18:32:00,71.4,49.6,30.01,NW,315,11.0,13.0,46,0.00,,,0.00,meteohub,2013-06-17 01:32:00,
2013-06-16 18:37:00,70.9,49.1,30.01,SW,225,8.0,13.0,46,0.00,,,0.00,meteohub,2013-06-17 01:37:00,
2013-06-16 18:42:00,70.5,49.8,30.01,NW,315,9.0,13.0,48,0.00,,,0.00,meteohub,2013-06-17 01:42:00,
2013-06-16 18:47:00,70.3,49.1,30.02,NW,315,9.0,11.0,47,0.00,,,0.00,meteohub,2013-06-17 01:47:00,
2013-06-16 18:52:00,70.0,48.2,30.02,West,270,6.0,12.0,46,0.00,,,0.00,meteohub,2013-06-17 01:52:00,
2013-06-16 18:57:00,69.8,48.7,30.02,North,0,7.0,12.0,47,0.00,,,0.00,meteohub,2013-06-17 01:57:00,
2013-06-16 19:02:00,69.4,48.9,30.02,North,0,11.0,12.0,48,0.00,,,0.00,meteohub,2013-06-17 02:02:00,
2013-06-16 19:07:00,68.9,50.0,30.02,NW,315,6.0,14.0,51,0.00,,,0.00,meteohub,2013-06-17 02:07:00,
2013-06-16 19:12:00,68.5,49.6,30.03,NW,315,4.0,14.0,51,0.00,,,0.00,meteohub,2013-06-17 02:12:00,
2013-06-16 19:17:00,68.7,49.8,30.03,South,180,4.0,14.0,51,0.00,,,0.00,meteohub,2013-06-17 02:17:00,
2013-06-16 19:22:00,68.7,49.8,30.03,WNW,293,11.0,12.0,51,0.00,,,0.00,meteohub,2013-06-17 02:22:00,
2013-06-16 19:27:00,68.4,49.5,30.03,NW,315,11.0,11.0,51,0.00,,,0.00,meteohub,2013-06-17 02:27:00,
2013-06-16 19:32:00,68.4,49.5,30.03,West,270,4.0,12.0,51,0.00,,,0.00,meteohub,2013-06-17 02:32:00,
2013-06-16 19:37:00,68.4,48.9,30.03,North,0,11.0,12.0,50,0.00,,,0.00,meteohub,2013-06-17 02:37:00,
2013-06-16 19:42:00,68.4,48.9,30.04,North,0,7.0,12.0,50,0.00,,,0.00,meteohub,2013-06-17 02:42:00,
2013-06-16 19:47:00,68.4,48.9,30.03,NW,315,6.0,11.0,50,0.00,,,0.00,meteohub,2013-06-17 02:47:00,
2013-06-16 19:52:00,68.4,48.9,30.03,NE,45,2.0,11.0,50,0.00,,,0.00,meteohub,2013-06-17 02:52:00,
2013-06-16 19:57:00,68.2,47.7,30.03,NW,315,6.0,11.0,48,0.00,,,0.00,meteohub,2013-06-17 02:57:00,
2013-06-16 20:02:00,68.0,46.9,30.04,North,0,7.0,14.0,47,0.00,,,0.00,meteohub,2013-06-17 03:02:00,
2013-06-16 20:07:00,68.0,46.4,30.04,South,180,2.0,14.0,46,0.00,,,0.00,meteohub,2013-06-17 03:07:00,
2013-06-16 20:12:00,67.8,46.2,30.04,SW,225,8.0,14.0,46,0.00,,,0.00,meteohub,2013-06-17 03:12:00,
2013-06-16 20:17:00,67.6,46.0,30.04,NW,315,3.0,11.0,46,0.00,,,0.00,meteohub,2013-06-17 03:17:00,
2013-06-16 20:22:00,67.3,46.4,30.04,North,0,6.0,11.0,47,0.00,,,0.00,meteohub,2013-06-17 03:22:00,
2013-06-16 20:27:00,67.1,46.2,30.04,WNW,293,8.0,9.0,47,0.00,,,0.00,meteohub,2013-06-17 03:27:00,
2013-06-16 20:32:00,66.9,46.0,30.04,North,0,14.0,14.0,47,0.00,,,0.00,meteohub,2013-06-17 03:32:00,
2013-06-16 20:37:00,66.7,45.9,30.04,North,0,4.0,14.0,47,0.00,,,0.00,meteohub,2013-06-17 03:37:00,
2013-06-16 20:42:00,66.6,45.7,30.04,NW,315,4.0,14.0,47,0.00,,,0.00,meteohub,2013-06-17 03:42:00,
2013-06-16 20:47:00,66.2,45.3,30.04,South,180,5.0,14.0,47,0.00,,,0.00,meteohub,2013-06-17 03:47:00,
2013-06-16 20:52:00,65.8,46.2,30.04,West,270,4.0,6.0,49,0.00,,,0.00,meteohub,2013-06-17 03:52:00,
2013-06-16 20:57:00,65.7,46.0,30.05,NW,315,5.0,6.0,49,0.00,,,0.00,meteohub,2013-06-17 03:57:00,
2013-06-16 21:01:00,65.5,45.9,30.05,North,0,2.0,8.0,49,0.00,,,0.00,meteohub,2013-06-17 04:01:00,
2013-06-16 21:02:00,65.5,46.4,30.05,NW,315,4.0,8.0,50,0.00,,,0.00,meteohub,2013-06-17 04:02:00,
2013-06-16 21:05:00,65.3,46.2,30.05,NW,315,6.0,8.0,50,0.00,,,0.00,meteohub,2013-06-17 04:05:00,
2013-06-16 21:07:00,65.3,46.2,30.05,NW,315,6.0,8.0,50,0.00,,,0.00,meteohub,2013-06-17 04:07:00,
2013-06-16 21:09:00,65.1,46.0,30.05,NW,315,4.0,8.0,50,0.00,,,0.00,meteohub,2013-06-17 04:09:00,
2013-06-16 21:15:00,64.9,46.4,30.05,WSW,248,4.0,8.0,51,0.00,,,0.00,meteohub,2013-06-17 04:15:00,
2013-06-16 21:21:00,64.6,46.0,30.06,West,270,4.0,8.0,51,0.00,,,0.00,meteohub,2013-06-17 04:21:00,
2013-06-16 21:27:00,64.6,46.0,30.06,NW,315,8.0,9.0,51,0.00,,,0.00,meteohub,2013-06-17 04:27:00,
2013-06-16 21:32:00,64.4,45.9,30.06,North,0,3.0,9.0,51,0.00,,,0.00,meteohub,2013-06-17 04:32:00,
2013-06-16 21:37:00,64.2,45.1,30.07,NW,315,12.0,12.0,50,0.00,,,0.00,meteohub,2013-06-17 04:37:00,
2013-06-16 21:42:00,64.0,45.5,30.07,North,0,4.0,12.0,51,0.00,,,0.00,meteohub,2013-06-17 04:42:00,
2013-06-16 21:47:00,63.9,45.9,30.07,WSW,248,2.0,12.0,52,0.00,,,0.00,meteohub,2013-06-17 04:47:00,
2013-06-16 21:52:00,63.5,45.5,30.07,North,0,3.0,12.0,52,0.00,,,0.00,meteohub,2013-06-17 04:52:00,
2013-06-16 21:57:00,63.1,45.7,30.07,West,270,2.0,7.0,53,0.00,,,0.00,meteohub,2013-06-17 04:57:00,
2013-06-16 22:02:00,62.8,45.3,30.07,NE,45,3.0,6.0,53,0.00,,,0.00,meteohub,2013-06-17 05:02:00,
2013-06-16 22:07:00,62.6,45.7,30.07,West,270,1.0,3.0,54,0.00,,,0.00,meteohub,2013-06-17 05:07:00,
2013-06-16 22:12:00,62.2,45.9,30.06,West,270,2.0,3.0,55,0.00,,,0.00,meteohub,2013-06-17 05:12:00,
2013-06-16 22:17:00,61.7,45.9,30.07,North,0,2.0,3.0,56,0.00,,,0.00,meteohub,2013-06-17 05:17:00,
2013-06-16 22:22:00,61.3,45.5,30.07,SE,135,3.0,3.0,56,0.00,,,0.00,meteohub,2013-06-17 05:22:00,
2013-06-16 22:27:00,61.3,46.0,30.07,NE,45,2.0,4.0,57,0.00,,,0.00,meteohub,2013-06-17 05:27:00,
2013-06-16 22:32:00,61.2,45.3,30.08,North,0,2.0,6.0,56,0.00,,,0.00,meteohub,2013-06-17 05:32:00,
2013-06-16 22:37:00,61.2,45.9,30.08,WNW,293,4.0,6.0,57,0.00,,,0.00,meteohub,2013-06-17 05:37:00,
2013-06-16 22:42:00,61.0,45.1,30.07,North,0,3.0,5.0,56,0.00,,,0.00,meteohub,2013-06-17 05:42:00,
2013-06-16 22:47:00,61.0,45.1,30.08,NW,315,2.0,5.0,56,0.00,,,0.00,meteohub,2013-06-17 05:47:00,
2013-06-16 22:52:00,60.8,45.0,30.08,West,270,1.0,5.0,56,0.00,,,0.00,meteohub,2013-06-17 05:52:00,
2013-06-16 22:57:00,60.6,45.3,30.07,NW,315,2.0,3.0,57,0.00,,,0.00,meteohub,2013-06-17 05:57:00,
2013-06-16 23:02:00,60.4,45.7,30.07,South,180,1.0,4.0,58,0.00,,,0.00,meteohub,2013-06-17 06:02:00,
2013-06-16 23:07:00,60.3,45.9,30.08,North,0,1.0,4.0,59,0.00,,,0.00,meteohub,2013-06-17 06:07:00,
2013-06-16 23:12:00,59.9,46.0,30.08,South,180,1.0,4.0,60,0.00,,,0.00,meteohub,2013-06-17 06:12:00,
2013-06-16 23:17:00,59.7,45.9,30.08,NW,315,0.0,4.0,60,0.00,,,0.00,meteohub,2013-06-17 06:17:00,
2013-06-16 23:22:00,59.5,45.7,30.08,North,0,1.0,4.0,60,0.00,,,0.00,meteohub,2013-06-17 06:22:00,
2013-06-16 23:27:00,59.0,45.1,30.08,SW,225,1.0,4.0,60,0.00,,,0.00,meteohub,2013-06-17 06:27:00,
2013-06-16 23:32:00,58.6,45.7,30.08,South,180,1.0,2.0,62,0.00,,,0.00,meteohub,2013-06-17 06:32:00,
2013-06-16 23:37:00,58.1,45.5,30.08,South,180,2.0,2.0,63,0.00,,,0.00,meteohub,2013-06-17 06:37:00,
2013-06-16 23:42:00,57.9,45.3,30.09,SW,225,1.0,2.0,63,0.00,,,0.00,meteohub,2013-06-17 06:42:00,
2013-06-16 23:47:00,57.7,45.3,30.08,SW,225,1.0,2.0,63,0.00,,,0.00,meteohub,2013-06-17 06:47:00,
2013-06-16 23:52:00,57.6,45.5,30.08,West,270,2.0,2.0,64,0.00,,,0.00,meteohub,2013-06-17 06:52:00,
2013-06-16 23:57:00,57.6,45.5,30.09,North,0,1.0,2.0,64,0.00,,,0.00,meteohub,2013-06-17 06:57:00,